sensor_id;sensor_type;location;lat;lon;timestamp;temperature;humidity
45319;DHT22;31057;48.498;32.260;2022-09-20T00:00:15;10.00;99.90
45319;DHT22;31057;48.498;32.260;2022-09-20T00:03:17;10.00;99.90
45319;DHT22;31057;48.498;32.260;2022-09-20T00:06:26;9.90;99.90
45319;DHT22;31057;48.498;32.260;2022-09-20T00:09:28;9.90;99.90
45319;DHT22;31057;48.498;32.260;2022-09-20T00:12:30;9.80;99.90
45319;DHT22;31057;48.498;32.260;2022-09-20T00:15:33;9.70;99.90
45319;DHT22;31057;48.498;32.260;2022-09-20T00:18:35;9.70;99.90
45319;DHT22;31057;48.498;32.260;2022-09-20T00:21:37;9.60;99.90
45319;DHT22;31057;48.498;32.260;2022-09-20T00:24:39;9.50;99.90
45319;DHT22;31057;48.498;32.260;2022-09-20T00:27:46;9.40;99.90
45319;DHT22;31057;48.498;32.260;2022-09-20T00:30:48;9.40;99.90
45319;DHT22;31057;48.498;32.260;2022-09-20T00:33:53;9.30;99.90
45319;DHT22;31057;48.498;32.260;2022-09-20T00:37:14;9.30;99.90
45319;DHT22;31057;48.498;32.260;2022-09-20T00:40:19;9.30;99.90
45319;DHT22;31057;48.498;32.260;2022-09-20T00:43:44;9.50;99.90
45319;DHT22;31057;48.498;32.260;2022-09-20T00:46:46;9.60;99.90
45319;DHT22;31057;48.498;32.260;2022-09-20T00:49:52;9.60;99.90
45319;DHT22;31057;48.498;32.260;2022-09-20T00:53:04;9.70;99.90
45319;DHT22;31057;48.498;32.260;2022-09-20T00:56:15;9.70;99.90
45319;DHT22;31057;48.498;32.260;2022-09-20T00:59:24;9.70;99.90
45319;DHT22;31057;48.498;32.260;2022-09-20T01:02:28;9.70;99.90
45319;DHT22;31057;48.498;32.260;2022-09-20T01:05:32;9.70;99.90
45319;DHT22;31057;48.498;32.260;2022-09-20T01:08:35;9.70;99.90
45319;DHT22;31057;48.498;32.260;2022-09-20T01:11:39;9.60;99.90
45319;DHT22;31057;48.498;32.260;2022-09-20T01:14:43;9.70;99.90
45319;DHT22;31057;48.498;32.260;2022-09-20T01:17:50;9.80;99.90
45319;DHT22;31057;48.498;32.260;2022-09-20T01:20:53;9.90;99.90
45319;DHT22;31057;48.498;32.260;2022-09-20T01:24:02;9.80;99.90
45319;DHT22;31057;48.498;32.260;2022-09-20T01:30:17;9.80;99.90
45319;DHT22;31057;48.498;32.260;2022-09-20T01:33:42;9.80;99.90
45319;DHT22;31057;48.498;32.260;2022-09-20T01:37:00;9.70;99.90
45319;DHT22;31057;48.498;32.260;2022-09-20T01:43:25;9.70;99.90
45319;DHT22;31057;48.498;32.260;2022-09-20T01:46:31;9.70;99.90
45319;DHT22;31057;48.498;32.260;2022-09-20T01:49:42;9.70;99.90
45319;DHT22;31057;48.498;32.260;2022-09-20T01:53:00;9.70;99.90
45319;DHT22;31057;48.498;32.260;2022-09-20T02:33:34;9.60;99.90
45319;DHT22;31057;48.498;32.260;2022-09-20T02:40:09;9.80;99.90
45319;DHT22;31057;48.498;32.260;2022-09-20T02:43:43;9.70;99.90
45319;DHT22;31057;48.498;32.260;2022-09-20T02:53:43;9.70;99.90
45319;DHT22;31057;48.498;32.260;2022-09-20T02:57:12;9.70;99.90
45319;DHT22;31057;48.498;32.260;2022-09-20T03:00:22;9.70;99.90
45319;DHT22;31057;48.498;32.260;2022-09-20T03:18:01;9.80;99.90
45319;DHT22;31057;48.498;32.260;2022-09-20T03:25:13;9.90;99.90
45319;DHT22;31057;48.498;32.260;2022-09-20T03:28:03;9.80;99.90
45319;DHT22;31057;48.498;32.260;2022-09-20T03:48:58;10.00;99.90
45319;DHT22;31057;48.498;32.260;2022-09-20T03:55:44;9.90;99.90
45319;DHT22;31057;48.498;32.260;2022-09-20T04:02:35;9.90;99.90
45319;DHT22;31057;48.498;32.260;2022-09-20T04:05:47;10.00;99.90
45319;DHT22;31057;48.498;32.260;2022-09-20T04:22:23;9.80;99.90
45319;DHT22;31057;48.498;32.260;2022-09-20T04:25:32;10.00;99.90
45319;DHT22;31057;48.498;32.260;2022-09-20T04:28:42;10.10;99.90
45319;DHT22;31057;48.498;32.260;2022-09-20T04:32:00;10.30;99.90
45319;DHT22;31057;48.498;32.260;2022-09-20T04:35:24;10.40;99.90
45319;DHT22;31057;48.498;32.260;2022-09-20T04:46:01;10.80;99.90
45319;DHT22;31057;48.498;32.260;2022-09-20T04:59:09;11.50;99.90
45319;DHT22;31057;48.498;32.260;2022-09-20T05:09:09;11.50;99.90
45319;DHT22;31057;48.498;32.260;2022-09-20T05:26:02;11.60;99.90
45319;DHT22;31057;48.498;32.260;2022-09-20T05:30:03;11.50;99.90
45319;DHT22;31057;48.498;32.260;2022-09-20T05:39:39;11.60;99.90
45319;DHT22;31057;48.498;32.260;2022-09-20T05:42:46;11.60;99.90
45319;DHT22;31057;48.498;32.260;2022-09-20T06:00:11;11.70;99.90
45319;DHT22;31057;48.498;32.260;2022-09-20T06:06:48;11.90;99.90
45319;DHT22;31057;48.498;32.260;2022-09-20T06:10:34;11.90;99.90
45319;DHT22;31057;48.498;32.260;2022-09-20T06:20:12;11.90;99.90
45319;DHT22;31057;48.498;32.260;2022-09-20T06:23:17;11.90;99.90
45319;DHT22;31057;48.498;32.260;2022-09-20T06:26:22;11.80;99.90
45319;DHT22;31057;48.498;32.260;2022-09-20T06:29:32;11.80;99.90
45319;DHT22;31057;48.498;32.260;2022-09-20T06:32:58;11.80;99.90
45319;DHT22;31057;48.498;32.260;2022-09-20T06:36:05;11.80;99.90
45319;DHT22;31057;48.498;32.260;2022-09-20T06:42:49;11.70;99.90
45319;DHT22;31057;48.498;32.260;2022-09-20T06:45:51;11.50;99.90
45319;DHT22;31057;48.498;32.260;2022-09-20T06:48:55;11.20;99.90
45319;DHT22;31057;48.498;32.260;2022-09-20T06:51:56;11.10;99.90
45319;DHT22;31057;48.498;32.260;2022-09-20T06:54:59;11.10;99.90
45319;DHT22;31057;48.498;32.260;2022-09-20T06:58:01;11.00;99.90
45319;DHT22;31057;48.498;32.260;2022-09-20T07:01:03;10.90;99.90
45319;DHT22;31057;48.498;32.260;2022-09-20T07:04:05;11.00;99.90
45319;DHT22;31057;48.498;32.260;2022-09-20T07:07:11;10.90;99.90
45319;DHT22;31057;48.498;32.260;2022-09-20T07:10:15;10.90;99.90
45319;DHT22;31057;48.498;32.260;2022-09-20T07:13:17;10.90;99.90
45319;DHT22;31057;48.498;32.260;2022-09-20T07:16:21;10.90;99.90
45319;DHT22;31057;48.498;32.260;2022-09-20T07:19:23;10.90;99.90
45319;DHT22;31057;48.498;32.260;2022-09-20T07:22:26;10.90;99.90
45319;DHT22;31057;48.498;32.260;2022-09-20T07:25:29;11.00;99.90
45319;DHT22;31057;48.498;32.260;2022-09-20T07:28:33;10.90;99.90
45319;DHT22;31057;48.498;32.260;2022-09-20T07:31:35;10.90;99.90
45319;DHT22;31057;48.498;32.260;2022-09-20T07:34:37;10.90;99.90
45319;DHT22;31057;48.498;32.260;2022-09-20T07:37:39;10.90;99.90
45319;DHT22;31057;48.498;32.260;2022-09-20T07:40:42;10.80;99.90
45319;DHT22;31057;48.498;32.260;2022-09-20T07:43:45;10.90;99.90
45319;DHT22;31057;48.498;32.260;2022-09-20T07:46:52;11.00;99.90
45319;DHT22;31057;48.498;32.260;2022-09-20T07:49:54;11.10;99.90
45319;DHT22;31057;48.498;32.260;2022-09-20T07:52:56;11.10;99.90
45319;DHT22;31057;48.498;32.260;2022-09-20T07:56:03;11.10;99.90
45319;DHT22;31057;48.498;32.260;2022-09-20T07:59:06;11.20;99.90
45319;DHT22;31057;48.498;32.260;2022-09-20T08:02:14;11.20;99.90
45319;DHT22;31057;48.498;32.260;2022-09-20T08:05:16;11.30;99.90
45319;DHT22;31057;48.498;32.260;2022-09-20T08:08:18;11.30;99.90
45319;DHT22;31057;48.498;32.260;2022-09-20T08:11:22;11.40;99.90
45319;DHT22;31057;48.498;32.260;2022-09-20T08:14:29;11.50;99.90
45319;DHT22;31057;48.498;32.260;2022-09-20T08:17:30;11.70;99.90
45319;DHT22;31057;48.498;32.260;2022-09-20T08:20:37;11.90;99.90
45319;DHT22;31057;48.498;32.260;2022-09-20T08:23:41;12.30;99.90
45319;DHT22;31057;48.498;32.260;2022-09-20T08:26:43;13.00;99.90
45319;DHT22;31057;48.498;32.260;2022-09-20T08:29:45;13.40;99.90
45319;DHT22;31057;48.498;32.260;2022-09-20T08:32:47;13.90;99.90
45319;DHT22;31057;48.498;32.260;2022-09-20T08:35:49;14.00;99.90
45319;DHT22;31057;48.498;32.260;2022-09-20T08:38:52;14.10;99.90
45319;DHT22;31057;48.498;32.260;2022-09-20T08:42:27;14.20;99.90
45319;DHT22;31057;48.498;32.260;2022-09-20T08:45:35;14.60;99.90
45319;DHT22;31057;48.498;32.260;2022-09-20T08:48:36;14.40;99.90
45319;DHT22;31057;48.498;32.260;2022-09-20T08:51:39;14.50;99.90
45319;DHT22;31057;48.498;32.260;2022-09-20T08:54:42;14.50;99.90
45319;DHT22;31057;48.498;32.260;2022-09-20T08:57:54;14.40;99.90
45319;DHT22;31057;48.498;32.260;2022-09-20T09:00:56;14.50;99.90
45319;DHT22;31057;48.498;32.260;2022-09-20T09:04:15;14.70;99.90
45319;DHT22;31057;48.498;32.260;2022-09-20T09:07:18;14.60;99.90
45319;DHT22;31057;48.498;32.260;2022-09-20T09:10:22;14.70;99.90
45319;DHT22;31057;48.498;32.260;2022-09-20T09:13:49;15.10;99.90
45319;DHT22;31057;48.498;32.260;2022-09-20T09:16:53;15.20;99.90
45319;DHT22;31057;48.498;32.260;2022-09-20T09:20:15;15.50;99.90
45319;DHT22;31057;48.498;32.260;2022-09-20T09:23:26;15.10;99.90
45319;DHT22;31057;48.498;32.260;2022-09-20T09:26:34;15.00;99.90
45319;DHT22;31057;48.498;32.260;2022-09-20T09:29:50;15.20;99.90
45319;DHT22;31057;48.498;32.260;2022-09-20T09:36:23;15.20;99.90
45319;DHT22;31057;48.498;32.260;2022-09-20T09:39:29;15.50;99.90
45319;DHT22;31057;48.498;32.260;2022-09-20T09:42:31;15.70;99.90
45319;DHT22;31057;48.498;32.260;2022-09-20T09:45:36;15.60;99.90
45319;DHT22;31057;48.498;32.260;2022-09-20T09:48:40;15.50;99.90
45319;DHT22;31057;48.498;32.260;2022-09-20T09:55:02;15.50;99.90
45319;DHT22;31057;48.498;32.260;2022-09-20T09:58:27;15.60;99.90
45319;DHT22;31057;48.498;32.260;2022-09-20T10:05:07;15.70;99.90
45319;DHT22;31057;48.498;32.260;2022-09-20T10:11:40;16.00;99.90
45319;DHT22;31057;48.498;32.260;2022-09-20T10:18:29;16.00;99.90
45319;DHT22;31057;48.498;32.260;2022-09-20T10:48:54;15.90;99.90
45319;DHT22;31057;48.498;32.260;2022-09-20T11:08:48;15.60;99.90
45319;DHT22;31057;48.498;32.260;2022-09-20T11:12:05;15.30;99.90
45319;DHT22;31057;48.498;32.260;2022-09-20T11:15:59;15.10;99.90
45319;DHT22;31057;48.498;32.260;2022-09-20T11:19:21;15.00;99.90
45319;DHT22;31057;48.498;32.260;2022-09-20T11:22:38;14.80;99.90
45319;DHT22;31057;48.498;32.260;2022-09-20T11:25:50;14.70;99.90
45319;DHT22;31057;48.498;32.260;2022-09-20T11:29:00;14.50;99.90
45319;DHT22;31057;48.498;32.260;2022-09-20T11:32:21;14.40;99.90
45319;DHT22;31057;48.498;32.260;2022-09-20T11:38:44;14.40;99.90
45319;DHT22;31057;48.498;32.260;2022-09-20T11:41:56;14.40;99.90
45319;DHT22;31057;48.498;32.260;2022-09-20T11:45:02;14.30;99.90
45319;DHT22;31057;48.498;32.260;2022-09-20T11:48:47;14.20;99.90
45319;DHT22;31057;48.498;32.260;2022-09-20T11:52:33;14.00;99.90
45319;DHT22;31057;48.498;32.260;2022-09-20T11:58:26;14.00;99.90
45319;DHT22;31057;48.498;32.260;2022-09-20T12:01:31;14.10;99.90
45319;DHT22;31057;48.498;32.260;2022-09-20T12:04:34;14.30;99.90
45319;DHT22;31057;48.498;32.260;2022-09-20T12:07:40;14.60;99.90
45319;DHT22;31057;48.498;32.260;2022-09-20T12:11:12;15.00;99.90
45319;DHT22;31057;48.498;32.260;2022-09-20T12:14:26;15.00;99.90
45319;DHT22;31057;48.498;32.260;2022-09-20T12:27:18;15.60;99.90
45319;DHT22;31057;48.498;32.260;2022-09-20T12:30:21;15.50;99.90
45319;DHT22;31057;48.498;32.260;2022-09-20T12:33:59;15.30;99.90
45319;DHT22;31057;48.498;32.260;2022-09-20T12:40:14;15.10;99.90
45319;DHT22;31057;48.498;32.260;2022-09-20T12:43:19;15.10;99.90
45319;DHT22;31057;48.498;32.260;2022-09-20T12:46:28;14.80;99.90
45319;DHT22;31057;48.498;32.260;2022-09-20T12:53:11;14.50;99.90
45319;DHT22;31057;48.498;32.260;2022-09-20T12:56:18;14.40;99.90
45319;DHT22;31057;48.498;32.260;2022-09-20T12:59:23;14.20;99.90
45319;DHT22;31057;48.498;32.260;2022-09-20T13:02:57;14.00;99.90
45319;DHT22;31057;48.498;32.260;2022-09-20T13:09:08;13.00;99.90
45319;DHT22;31057;48.498;32.260;2022-09-20T13:12:11;11.40;99.90
45319;DHT22;31057;48.498;32.260;2022-09-20T13:15:18;11.40;99.90
45319;DHT22;31057;48.498;32.260;2022-09-20T13:18:21;12.10;99.90
45319;DHT22;31057;48.498;32.260;2022-09-20T13:21:25;13.20;99.90
45319;DHT22;31057;48.498;32.260;2022-09-20T13:24:42;14.00;99.90
45319;DHT22;31057;48.498;32.260;2022-09-20T13:31:15;14.30;99.90
45319;DHT22;31057;48.498;32.260;2022-09-20T13:34:24;14.40;99.90
45319;DHT22;31057;48.498;32.260;2022-09-20T13:37:26;14.60;99.90
45319;DHT22;31057;48.498;32.260;2022-09-20T13:40:37;14.70;99.90
45319;DHT22;31057;48.498;32.260;2022-09-20T13:43:42;14.90;99.90
45319;DHT22;31057;48.498;32.260;2022-09-20T13:46:44;15.40;99.90
45319;DHT22;31057;48.498;32.260;2022-09-20T13:49:46;15.90;99.90
45319;DHT22;31057;48.498;32.260;2022-09-20T13:52:56;15.50;99.90
45319;DHT22;31057;48.498;32.260;2022-09-20T13:55:58;15.00;99.90
45319;DHT22;31057;48.498;32.260;2022-09-20T13:59:04;15.40;99.90
45319;DHT22;31057;48.498;32.260;2022-09-20T14:02:28;15.70;99.90
45319;DHT22;31057;48.498;32.260;2022-09-20T14:05:32;16.60;99.90
45319;DHT22;31057;48.498;32.260;2022-09-20T14:08:39;15.90;99.90
45319;DHT22;31057;48.498;32.260;2022-09-20T14:11:41;16.80;99.90
45319;DHT22;31057;48.498;32.260;2022-09-20T14:14:44;19.70;99.90
45319;DHT22;31057;48.498;32.260;2022-09-20T14:17:47;20.40;99.90
45319;DHT22;31057;48.498;32.260;2022-09-20T14:20:50;20.20;99.90
45319;DHT22;31057;48.498;32.260;2022-09-20T14:23:58;19.30;99.90
45319;DHT22;31057;48.498;32.260;2022-09-20T14:27:19;18.80;99.90
45319;DHT22;31057;48.498;32.260;2022-09-20T14:30:33;18.60;99.90
45319;DHT22;31057;48.498;32.260;2022-09-20T14:33:41;18.30;99.90
45319;DHT22;31057;48.498;32.260;2022-09-20T14:36:44;18.20;99.90
45319;DHT22;31057;48.498;32.260;2022-09-20T14:39:53;17.70;99.90
45319;DHT22;31057;48.498;32.260;2022-09-20T14:42:58;17.00;99.90
45319;DHT22;31057;48.498;32.260;2022-09-20T14:46:03;16.50;99.90
45319;DHT22;31057;48.498;32.260;2022-09-20T14:55:28;14.60;99.90
45319;DHT22;31057;48.498;32.260;2022-09-20T14:59:04;14.10;99.90
45319;DHT22;31057;48.498;32.260;2022-09-20T15:05:23;13.60;99.90
45319;DHT22;31057;48.498;32.260;2022-09-20T15:08:26;14.50;99.90
45319;DHT22;31057;48.498;32.260;2022-09-20T15:11:28;17.10;99.90
45319;DHT22;31057;48.498;32.260;2022-09-20T15:14:30;15.40;99.90
45319;DHT22;31057;48.498;32.260;2022-09-20T15:17:38;14.20;99.90
45319;DHT22;31057;48.498;32.260;2022-09-20T15:20:40;13.90;99.90
45319;DHT22;31057;48.498;32.260;2022-09-20T15:23:42;13.80;99.90
45319;DHT22;31057;48.498;32.260;2022-09-20T15:26:44;14.30;99.90
45319;DHT22;31057;48.498;32.260;2022-09-20T15:29:47;13.90;99.90
45319;DHT22;31057;48.498;32.260;2022-09-20T15:32:49;13.60;99.90
45319;DHT22;31057;48.498;32.260;2022-09-20T15:35:51;14.30;99.90
45319;DHT22;31057;48.498;32.260;2022-09-20T15:38:53;14.60;99.90
45319;DHT22;31057;48.498;32.260;2022-09-20T15:41:55;14.40;99.90
45319;DHT22;31057;48.498;32.260;2022-09-20T15:44:57;13.80;99.90
45319;DHT22;31057;48.498;32.260;2022-09-20T15:47:59;13.40;99.90
45319;DHT22;31057;48.498;32.260;2022-09-20T15:51:06;13.10;99.90
45319;DHT22;31057;48.498;32.260;2022-09-20T15:54:12;12.90;99.90
45319;DHT22;31057;48.498;32.260;2022-09-20T15:57:14;12.70;99.90
45319;DHT22;31057;48.498;32.260;2022-09-20T16:00:16;12.50;99.90
45319;DHT22;31057;48.498;32.260;2022-09-20T16:03:18;12.30;99.90
45319;DHT22;31057;48.498;32.260;2022-09-20T16:06:22;12.10;99.90
45319;DHT22;31057;48.498;32.260;2022-09-20T16:09:24;12.00;99.90
45319;DHT22;31057;48.498;32.260;2022-09-20T16:12:26;11.80;99.90
45319;DHT22;31057;48.498;32.260;2022-09-20T16:15:28;11.50;99.90
45319;DHT22;31057;48.498;32.260;2022-09-20T16:18:30;11.50;99.90
45319;DHT22;31057;48.498;32.260;2022-09-20T16:21:55;11.40;99.90
45319;DHT22;31057;48.498;32.260;2022-09-20T16:24:59;11.20;99.90
45319;DHT22;31057;48.498;32.260;2022-09-20T16:28:06;11.10;99.90
45319;DHT22;31057;48.498;32.260;2022-09-20T16:34:34;10.80;99.90
45319;DHT22;31057;48.498;32.260;2022-09-20T16:37:36;10.80;99.90
45319;DHT22;31057;48.498;32.260;2022-09-20T16:40:40;10.70;99.90
45319;DHT22;31057;48.498;32.260;2022-09-20T16:43:42;10.60;99.90
45319;DHT22;31057;48.498;32.260;2022-09-20T16:46:43;10.50;99.90
45319;DHT22;31057;48.498;32.260;2022-09-20T16:49:47;10.40;99.90
45319;DHT22;31057;48.498;32.260;2022-09-20T16:52:49;10.40;99.90
45319;DHT22;31057;48.498;32.260;2022-09-20T16:55:51;10.30;99.90
45319;DHT22;31057;48.498;32.260;2022-09-20T16:58:56;10.00;99.90
45319;DHT22;31057;48.498;32.260;2022-09-20T17:01:58;9.90;99.90
45319;DHT22;31057;48.498;32.260;2022-09-20T17:05:00;9.70;99.90
45319;DHT22;31057;48.498;32.260;2022-09-20T17:08:02;9.60;99.90
45319;DHT22;31057;48.498;32.260;2022-09-20T17:11:16;9.40;99.90
45319;DHT22;31057;48.498;32.260;2022-09-20T17:14:21;9.40;99.90
45319;DHT22;31057;48.498;32.260;2022-09-20T17:17:23;9.40;99.90
45319;DHT22;31057;48.498;32.260;2022-09-20T17:20:25;9.30;99.90
45319;DHT22;31057;48.498;32.260;2022-09-20T17:23:31;9.20;99.90
45319;DHT22;31057;48.498;32.260;2022-09-20T17:26:41;9.20;99.90
45319;DHT22;31057;48.498;32.260;2022-09-20T17:29:45;9.10;99.90
45319;DHT22;31057;48.498;32.260;2022-09-20T17:32:48;9.00;99.90
45319;DHT22;31057;48.498;32.260;2022-09-20T17:35:52;9.10;99.90
45319;DHT22;31057;48.498;32.260;2022-09-20T17:38:56;9.00;99.90
45319;DHT22;31057;48.498;32.260;2022-09-20T17:42:04;9.00;99.90
45319;DHT22;31057;48.498;32.260;2022-09-20T17:45:07;8.80;99.90
45319;DHT22;31057;48.498;32.260;2022-09-20T17:48:09;8.90;99.90
45319;DHT22;31057;48.498;32.260;2022-09-20T17:51:11;8.80;99.90
45319;DHT22;31057;48.498;32.260;2022-09-20T17:54:13;8.90;99.90
45319;DHT22;31057;48.498;32.260;2022-09-20T17:57:16;8.80;99.90
45319;DHT22;31057;48.498;32.260;2022-09-20T18:00:18;8.80;99.90
45319;DHT22;31057;48.498;32.260;2022-09-20T18:03:20;8.70;99.90
45319;DHT22;31057;48.498;32.260;2022-09-20T18:06:28;8.70;99.90
45319;DHT22;31057;48.498;32.260;2022-09-20T18:09:30;8.60;99.90
45319;DHT22;31057;48.498;32.260;2022-09-20T18:12:32;8.50;99.90
45319;DHT22;31057;48.498;32.260;2022-09-20T18:15:34;8.30;99.90
45319;DHT22;31057;48.498;32.260;2022-09-20T18:18:37;8.20;99.90
45319;DHT22;31057;48.498;32.260;2022-09-20T18:21:41;8.20;99.90
45319;DHT22;31057;48.498;32.260;2022-09-20T18:24:43;8.20;99.90
45319;DHT22;31057;48.498;32.260;2022-09-20T18:27:45;8.20;99.90
45319;DHT22;31057;48.498;32.260;2022-09-20T18:31:01;8.20;99.90
45319;DHT22;31057;48.498;32.260;2022-09-20T18:34:11;8.30;99.90
45319;DHT22;31057;48.498;32.260;2022-09-20T18:37:16;8.40;99.90
45319;DHT22;31057;48.498;32.260;2022-09-20T18:40:18;8.40;99.90
45319;DHT22;31057;48.498;32.260;2022-09-20T18:43:20;8.30;99.90
45319;DHT22;31057;48.498;32.260;2022-09-20T18:46:23;8.20;99.90
45319;DHT22;31057;48.498;32.260;2022-09-20T18:49:25;8.20;99.90
45319;DHT22;31057;48.498;32.260;2022-09-20T18:52:27;8.10;99.90
45319;DHT22;31057;48.498;32.260;2022-09-20T18:55:30;8.10;99.90
45319;DHT22;31057;48.498;32.260;2022-09-20T18:58:33;7.90;99.90
45319;DHT22;31057;48.498;32.260;2022-09-20T19:02:16;7.80;99.90
45319;DHT22;31057;48.498;32.260;2022-09-20T19:05:19;7.80;99.90
45319;DHT22;31057;48.498;32.260;2022-09-20T19:11:42;8.10;99.90
45319;DHT22;31057;48.498;32.260;2022-09-20T19:15:00;8.20;99.90
45319;DHT22;31057;48.498;32.260;2022-09-20T19:25:05;7.90;99.90
45319;DHT22;31057;48.498;32.260;2022-09-20T19:28:12;7.90;99.90
45319;DHT22;31057;48.498;32.260;2022-09-20T19:34:31;7.80;99.90
45319;DHT22;31057;48.498;32.260;2022-09-20T19:38:00;7.70;99.90
45319;DHT22;31057;48.498;32.260;2022-09-20T19:41:22;7.70;99.90
45319;DHT22;31057;48.498;32.260;2022-09-20T19:51:03;7.90;99.90
45319;DHT22;31057;48.498;32.260;2022-09-20T19:54:09;8.00;99.90
45319;DHT22;31057;48.498;32.260;2022-09-20T19:57:28;8.00;99.90
45319;DHT22;31057;48.498;32.260;2022-09-20T20:00:32;8.00;99.90
45319;DHT22;31057;48.498;32.260;2022-09-20T20:03:34;8.00;99.90
45319;DHT22;31057;48.498;32.260;2022-09-20T20:06:57;8.10;99.90
45319;DHT22;31057;48.498;32.260;2022-09-20T20:14:16;8.40;99.90
45319;DHT22;31057;48.498;32.260;2022-09-20T20:24:40;8.70;99.90
45319;DHT22;31057;48.498;32.260;2022-09-20T20:27:45;8.80;99.90
45319;DHT22;31057;48.498;32.260;2022-09-20T20:30:47;8.80;99.90
45319;DHT22;31057;48.498;32.260;2022-09-20T20:33:49;8.90;99.90
45319;DHT22;31057;48.498;32.260;2022-09-20T20:36:51;8.80;99.90
45319;DHT22;31057;48.498;32.260;2022-09-20T20:40:01;8.90;99.90
45319;DHT22;31057;48.498;32.260;2022-09-20T20:43:03;9.00;99.90
45319;DHT22;31057;48.498;32.260;2022-09-20T20:46:08;9.00;99.90
45319;DHT22;31057;48.498;32.260;2022-09-20T20:49:10;9.00;99.90
45319;DHT22;31057;48.498;32.260;2022-09-20T20:52:12;9.00;99.90
45319;DHT22;31057;48.498;32.260;2022-09-20T20:55:14;8.90;99.90
45319;DHT22;31057;48.498;32.260;2022-09-20T20:58:16;9.00;99.90
45319;DHT22;31057;48.498;32.260;2022-09-20T21:01:25;9.00;99.90
45319;DHT22;31057;48.498;32.260;2022-09-20T21:04:27;9.00;99.90
45319;DHT22;31057;48.498;32.260;2022-09-20T21:07:30;9.10;99.90
45319;DHT22;31057;48.498;32.260;2022-09-20T21:10:32;9.20;99.90
45319;DHT22;31057;48.498;32.260;2022-09-20T21:13:34;9.20;99.90
45319;DHT22;31057;48.498;32.260;2022-09-20T21:16:39;9.20;99.90
45319;DHT22;31057;48.498;32.260;2022-09-20T21:19:43;9.20;99.90
45319;DHT22;31057;48.498;32.260;2022-09-20T21:22:45;9.30;99.90
45319;DHT22;31057;48.498;32.260;2022-09-20T21:25:46;9.20;99.90
45319;DHT22;31057;48.498;32.260;2022-09-20T21:28:54;9.20;99.90
45319;DHT22;31057;48.498;32.260;2022-09-20T21:31:57;9.20;99.90
45319;DHT22;31057;48.498;32.260;2022-09-20T21:34:59;9.20;99.90
45319;DHT22;31057;48.498;32.260;2022-09-20T21:38:01;9.10;99.90
45319;DHT22;31057;48.498;32.260;2022-09-20T21:41:17;9.20;99.90
45319;DHT22;31057;48.498;32.260;2022-09-20T21:44:20;9.20;99.90
45319;DHT22;31057;48.498;32.260;2022-09-20T21:47:22;9.20;99.90
45319;DHT22;31057;48.498;32.260;2022-09-20T21:50:24;9.20;99.90
45319;DHT22;31057;48.498;32.260;2022-09-20T21:53:26;9.30;99.90
45319;DHT22;31057;48.498;32.260;2022-09-20T21:56:34;9.20;99.90
45319;DHT22;31057;48.498;32.260;2022-09-20T21:59:36;9.30;99.90
45319;DHT22;31057;48.498;32.260;2022-09-20T22:02:38;9.30;99.90
45319;DHT22;31057;48.498;32.260;2022-09-20T22:05:41;9.30;99.90
45319;DHT22;31057;48.498;32.260;2022-09-20T22:08:57;9.30;99.90
45319;DHT22;31057;48.498;32.260;2022-09-20T22:11:59;9.30;99.90
45319;DHT22;31057;48.498;32.260;2022-09-20T22:15:01;9.20;99.90
45319;DHT22;31057;48.498;32.260;2022-09-20T22:18:03;9.20;99.90
45319;DHT22;31057;48.498;32.260;2022-09-20T22:21:12;9.20;99.90
45319;DHT22;31057;48.498;32.260;2022-09-20T22:24:15;9.30;99.90
45319;DHT22;31057;48.498;32.260;2022-09-20T22:27:17;9.30;99.90
45319;DHT22;31057;48.498;32.260;2022-09-20T22:30:19;9.40;99.90
45319;DHT22;31057;48.498;32.260;2022-09-20T22:33:21;9.40;99.90
45319;DHT22;31057;48.498;32.260;2022-09-20T22:36:26;9.40;99.90
45319;DHT22;31057;48.498;32.260;2022-09-20T22:39:28;9.50;99.90
45319;DHT22;31057;48.498;32.260;2022-09-20T22:42:30;9.50;99.90
45319;DHT22;31057;48.498;32.260;2022-09-20T22:45:32;9.40;99.90
45319;DHT22;31057;48.498;32.260;2022-09-20T22:48:35;9.40;99.90
45319;DHT22;31057;48.498;32.260;2022-09-20T22:51:37;9.40;99.90
45319;DHT22;31057;48.498;32.260;2022-09-20T22:54:39;9.40;99.90
45319;DHT22;31057;48.498;32.260;2022-09-20T22:57:41;9.50;99.90
45319;DHT22;31057;48.498;32.260;2022-09-20T23:00:43;9.50;99.90
45319;DHT22;31057;48.498;32.260;2022-09-20T23:03:47;9.50;99.90
45319;DHT22;31057;48.498;32.260;2022-09-20T23:06:53;9.50;99.90
45319;DHT22;31057;48.498;32.260;2022-09-20T23:09:55;9.60;99.90
45319;DHT22;31057;48.498;32.260;2022-09-20T23:12:57;9.60;99.90
45319;DHT22;31057;48.498;32.260;2022-09-20T23:15:59;9.70;99.90
45319;DHT22;31057;48.498;32.260;2022-09-20T23:19:03;9.70;99.90
45319;DHT22;31057;48.498;32.260;2022-09-20T23:22:05;9.70;99.90
45319;DHT22;31057;48.498;32.260;2022-09-20T23:25:07;9.80;99.90
45319;DHT22;31057;48.498;32.260;2022-09-20T23:28:09;9.80;99.90
45319;DHT22;31057;48.498;32.260;2022-09-20T23:31:15;9.80;99.90
45319;DHT22;31057;48.498;32.260;2022-09-20T23:34:17;9.80;99.90
45319;DHT22;31057;48.498;32.260;2022-09-20T23:37:19;9.90;99.90
45319;DHT22;31057;48.498;32.260;2022-09-20T23:40:21;9.90;99.90
45319;DHT22;31057;48.498;32.260;2022-09-20T23:43:23;9.80;99.90
45319;DHT22;31057;48.498;32.260;2022-09-20T23:46:26;9.90;99.90
45319;DHT22;31057;48.498;32.260;2022-09-20T23:49:28;9.90;99.90
45319;DHT22;31057;48.498;32.260;2022-09-20T23:52:29;9.90;99.90
45319;DHT22;31057;48.498;32.260;2022-09-20T23:55:31;10.00;99.90
45319;DHT22;31057;48.498;32.260;2022-09-20T23:58:35;10.00;99.90
